Terminal Aerodrome Forecast
Issued by NWS

Home | Current Version | Previous Version | Text Only | Print | Product List | Glossary On
Versions: 1 2 3 4 5 6 7 8 9 10 11 12
000
FTUS43 KSGF 290520
TAFJLN
TAF
KJLN 290520Z 2906/3006 18009KT P6SM BKN150 OVC200
     FM290700 18008KT P6SM VCSH SCT070 BKN200 WS019/23035KT
      TEMPO 2908/2912 5SM -TSRA BR BKN050CB
     FM291300 21008KT P6SM SCT070
     FM291800 25007KT P6SM FEW045
     FM300000 VRB05KT P6SM SCT050 PROB30 3003/3006 4SM TSRA BR
      BKN045CB=

USA.gov is the U.S. government's official web portal to all federal, state and local government web resources and services.